Decoded Metar for VTBD (Don Muang in Thailand) (IATA:DMK) | Meteo·Mobile Aviation Weather
aviador You're here:

VTBD Decoded Metar

Don Muang in Thailand
Report Time2018-08-16 18:00:00
UTC Time2018-08-16 18:18:21
Flight Rules vfr VFR
Wind270° at 08 kt
W.Decomp.*RWY 21: 4.0 kt HW 6.9 kt RCW
W.Rank270° ranks 10
Current wind is above 270° avg. (6.7)
Visibility9999 m
Phenomena:N/A
Clouds:Few 020 Hf
Expected CloudBase > 1,600 ft AGL from Temp-Dew spread
CeilingNone
Temp28°C (ISA +13)
Dew Point24°C (79% RH)
Heat Index31.9°C
QNH1004 hPa
Density Alt2,201 ft
Elevation9 ft
Report Wrong Elevation
Raw Report
METAR VTBD 161800Z 27008KT 9999 FEW020 28/24 Q1004 NOSIG=

Extra information for VTBD:More info

Metar Taf Metar & Taf Last 4 Metars F.Rules Stats Wind Profile Meteogram Temp Stats Airport Information Weather charts Add Link Nearby VenuesMetar ALERT Operation Metar Decoded Social comments